createdAt,value
2023-01-05T00:02:21.990Z,9.4
2023-01-05T00:04:17.181Z,9.3
2023-01-05T00:06:16.709Z,9.3
2023-01-05T00:08:16.150Z,9.3
2023-01-05T00:10:16.603Z,9.3
2023-01-05T00:12:16.157Z,9.3
2023-01-05T00:14:16.161Z,9.3
2023-01-05T00:16:16.676Z,9.2
2023-01-05T00:18:16.182Z,9.3
2023-01-05T00:20:16.170Z,9.3
2023-01-05T00:22:16.671Z,9.3
2023-01-05T00:26:16.155Z,9.3
2023-01-05T00:32:16.147Z,9.3
2023-01-05T00:34:16.628Z,9.3
2023-01-05T00:36:16.177Z,9.4
2023-01-05T00:38:16.178Z,9.3
2023-01-05T00:40:16.611Z,9.3
2023-01-05T00:42:16.898Z,9.3
2023-01-05T00:44:16.173Z,9.3
2023-01-05T00:46:16.709Z,9.3
2023-01-05T00:48:16.183Z,9.3
2023-01-05T00:50:16.537Z,9.3
2023-01-05T00:54:16.162Z,9.3
2023-01-05T00:56:16.167Z,9.3
2023-01-05T00:58:16.599Z,9.3
2023-01-05T01:00:16.162Z,9.3
2023-01-05T01:02:16.271Z,9.4
2023-01-05T01:04:17.016Z,9.4
2023-01-05T01:06:16.618Z,9.3
2023-01-05T01:08:16.153Z,9.3
2023-01-05T01:10:16.645Z,9.3
2023-01-05T01:12:16.648Z,9.2
2023-01-05T01:14:16.147Z,9.1
2023-01-05T01:16:16.688Z,9.1
2023-01-05T01:20:16.162Z,9
2023-01-05T01:22:16.607Z,9
2023-01-05T01:24:16.153Z,9.1
2023-01-05T01:26:16.181Z,9
2023-01-05T01:30:16.155Z,9
2023-01-05T01:32:16.204Z,9
2023-01-05T01:34:16.629Z,9
2023-01-05T01:36:16.176Z,9
2023-01-05T01:38:16.164Z,9
2023-01-05T01:40:16.607Z,9.1
2023-01-05T01:42:16.171Z,9.1
2023-01-05T01:44:16.629Z,9
2023-01-05T01:46:16.670Z,9
2023-01-05T01:48:16.163Z,9.1
2023-01-05T01:50:16.190Z,9
2023-01-05T01:52:16.623Z,9.1
2023-01-05T01:54:16.196Z,9.1
2023-01-05T01:56:16.207Z,9.1
2023-01-05T01:58:16.696Z,9.1
2023-01-05T02:00:16.174Z,9.1
2023-01-05T02:02:16.712Z,9.2
2023-01-05T02:04:16.679Z,9.2
2023-01-05T02:06:16.162Z,9.3
2023-01-05T02:08:16.162Z,9.2
2023-01-05T02:10:17.118Z,9.2
2023-01-05T02:12:16.617Z,9.3
2023-01-05T02:14:16.151Z,9.3
2023-01-05T02:16:17.263Z,9.4
2023-01-05T02:18:16.603Z,9.4
2023-01-05T02:20:16.604Z,9.4
2023-01-05T02:22:16.736Z,9.3
2023-01-05T02:24:16.185Z,9.4
2023-01-05T02:26:16.622Z,9.5
2023-01-05T02:28:16.633Z,9.4
2023-01-05T02:30:16.178Z,9.4
2023-01-05T02:32:16.204Z,9.4
2023-01-05T02:40:17.062Z,9.4
2023-01-05T02:42:16.165Z,9.4
2023-01-05T02:44:16.190Z,9.4
2023-01-05T02:46:16.676Z,9.3
2023-01-05T02:48:16.195Z,9.3
2023-01-05T02:50:16.182Z,9.4
2023-01-05T02:52:16.630Z,9.4
2023-01-05T02:54:16.680Z,9.3
2023-01-05T02:56:16.626Z,9.3
2023-01-05T02:58:17.058Z,9.4
2023-01-05T03:00:16.207Z,9.3
2023-01-05T03:02:16.279Z,9.3
2023-01-05T03:04:16.678Z,9.4
2023-01-05T03:06:16.246Z,9.4
2023-01-05T03:08:16.584Z,9.3
2023-01-05T03:10:16.626Z,9.4
2023-01-05T03:14:16.163Z,9.4
2023-01-05T03:16:17.204Z,9.4
2023-01-05T03:18:16.164Z,9.3
2023-01-05T03:20:16.184Z,9.4
2023-01-05T03:22:17.057Z,9.4
2023-01-05T03:24:16.644Z,9.5
2023-01-05T03:26:16.176Z,9.4
2023-01-05T03:28:16.665Z,9.4
2023-01-05T03:30:16.672Z,9.4
2023-01-05T03:32:16.169Z,9.4
2023-01-05T03:34:16.627Z,9.4
2023-01-05T03:36:16.167Z,9.4
2023-01-05T03:38:18.418Z,9.4
2023-01-05T03:40:16.757Z,9.4
2023-01-05T03:42:16.207Z,9.4
2023-01-05T03:44:16.168Z,9.4
2023-01-05T03:46:16.669Z,9.5
2023-01-05T03:48:16.656Z,9.6
2023-01-05T03:50:16.170Z,9.5
2023-01-05T03:52:17.403Z,9.5
2023-01-05T03:54:16.621Z,9.5
2023-01-05T03:56:16.196Z,9.6
2023-01-05T03:58:17.160Z,9.5
2023-01-05T04:00:16.171Z,9.6
2023-01-05T04:04:17.382Z,9.6
2023-01-05T04:06:16.173Z,9.6
2023-01-05T04:08:16.628Z,9.6
2023-01-05T04:10:16.663Z,9.6
2023-01-05T04:12:16.220Z,9.7
2023-01-05T04:14:16.165Z,9.7
2023-01-05T04:16:16.726Z,9.7
2023-01-05T04:18:16.199Z,9.7
2023-01-05T04:22:18.131Z,9.8
2023-01-05T04:24:16.176Z,9.7
2023-01-05T04:26:16.400Z,9.8
2023-01-05T04:28:17.105Z,9.7
2023-01-05T04:30:16.543Z,9.7
2023-01-05T04:32:16.629Z,9.6
2023-01-05T04:34:17.083Z,9.6
2023-01-05T04:38:16.172Z,9.6
2023-01-05T04:40:17.097Z,9.6
2023-01-05T04:42:16.173Z,9.7
2023-01-05T04:44:16.175Z,9.7
2023-01-05T04:46:17.411Z,9.6
2023-01-05T04:48:16.171Z,9.6
2023-01-05T04:50:16.187Z,9.6
2023-01-05T04:52:18.032Z,9.7
2023-01-05T04:54:16.528Z,9.6
2023-01-05T04:56:16.177Z,9.7
2023-01-05T04:58:16.676Z,9.6
2023-01-05T05:00:16.171Z,9.6
2023-01-05T05:02:16.991Z,9.6
2023-01-05T05:04:16.674Z,9.5
2023-01-05T05:06:16.665Z,9.5
2023-01-05T05:08:16.185Z,9.5
2023-01-05T05:10:17.145Z,9.5
2023-01-05T05:12:16.182Z,9.5
2023-01-05T05:14:16.536Z,9.5
2023-01-05T05:16:16.660Z,9.6
2023-01-05T05:18:16.919Z,9.5
2023-01-05T05:20:16.194Z,9.5
2023-01-05T05:22:16.668Z,9.5
2023-01-05T05:24:16.182Z,9.4
2023-01-05T05:26:16.171Z,9.4
2023-01-05T05:28:17.081Z,9.3
2023-01-05T05:30:16.921Z,9.3
2023-01-05T05:32:16.181Z,9.2
2023-01-05T05:34:16.644Z,9.3
2023-01-05T05:36:16.550Z,9.3
2023-01-05T05:38:16.183Z,9.2
2023-01-05T05:40:16.654Z,9.1
2023-01-05T05:42:16.324Z,9.2
2023-01-05T05:46:16.679Z,9.3
2023-01-05T05:48:16.189Z,9.3
2023-01-05T05:50:16.181Z,9.2
2023-01-05T05:52:16.643Z,9.2
2023-01-05T05:54:16.679Z,9.2
2023-01-05T05:56:16.172Z,9.1
2023-01-05T05:58:16.642Z,9.2
2023-01-05T06:00:16.225Z,9.2
2023-01-05T06:02:17.028Z,9.1
2023-01-05T06:04:17.023Z,9.1
2023-01-05T06:06:16.930Z,9.1
2023-01-05T06:08:16.654Z,9.1
2023-01-05T06:10:16.659Z,9.1
2023-01-05T06:12:16.658Z,9.1
2023-01-05T06:14:16.629Z,9.1
2023-01-05T06:16:16.746Z,9.1
2023-01-05T06:18:16.202Z,9.1
2023-01-05T06:20:16.175Z,9.1
2023-01-05T06:22:17.135Z,9.1
2023-01-05T06:24:16.193Z,9.1
2023-01-05T06:26:16.680Z,9.1
2023-01-05T06:30:16.201Z,9
2023-01-05T06:32:16.213Z,9.1
2023-01-05T06:34:16.674Z,9.1
2023-01-05T06:36:16.581Z,9.2
2023-01-05T06:38:16.251Z,9.2
2023-01-05T06:40:16.674Z,9.2
2023-01-05T06:44:16.183Z,9.2
2023-01-05T06:46:16.694Z,9.1
2023-01-05T06:48:16.191Z,9.1
2023-01-05T06:50:16.245Z,9.1
2023-01-05T06:52:17.073Z,9.2
2023-01-05T06:54:16.202Z,9.2
2023-01-05T06:56:16.197Z,9.1
2023-01-05T06:58:16.702Z,9.2
2023-01-05T07:00:16.188Z,9.1
2023-01-05T07:02:16.263Z,9.1
2023-01-05T07:04:17.041Z,9.1
2023-01-05T07:06:16.265Z,9.2
2023-01-05T07:08:17.001Z,9.1
2023-01-05T07:10:16.666Z,9.1
2023-01-05T07:14:16.240Z,9.1
2023-01-05T07:16:16.737Z,9.1
2023-01-05T07:18:16.197Z,9.1
2023-01-05T07:22:16.785Z,9.1
2023-01-05T07:24:16.201Z,9.1
2023-01-05T07:26:16.683Z,9.1
2023-01-05T07:28:16.680Z,9
2023-01-05T07:30:16.200Z,9
2023-01-05T07:32:16.652Z,9
2023-01-05T07:34:17.128Z,9
2023-01-05T07:36:16.217Z,9
2023-01-05T07:40:16.714Z,8.9
2023-01-05T07:42:16.192Z,8.9
2023-01-05T07:44:16.200Z,8.9
2023-01-05T07:46:16.746Z,8.9
2023-01-05T07:48:20.393Z,8.8
2023-01-05T07:52:17.118Z,8.8
2023-01-05T07:58:16.704Z,8.8
2023-01-05T08:00:16.233Z,8.8
2023-01-05T08:02:16.354Z,8.8
2023-01-05T08:04:16.764Z,8.7
2023-01-05T08:08:20.692Z,8.7
2023-01-05T08:10:16.711Z,8.7
2023-01-05T08:12:16.652Z,8.7
2023-01-05T08:14:16.226Z,8.7
2023-01-05T08:18:16.251Z,8.6
2023-01-05T08:20:16.209Z,8.6
2023-01-05T08:22:16.728Z,8.6
2023-01-05T08:24:16.209Z,8.6
2023-01-05T08:26:16.238Z,8.6
2023-01-05T08:28:16.713Z,8.6
2023-01-05T08:30:16.670Z,8.6
2023-01-05T08:32:16.255Z,8.6
2023-01-05T08:34:16.709Z,8.5
2023-01-05T08:36:16.225Z,8.5
2023-01-05T08:38:16.446Z,8.5
2023-01-05T08:40:16.673Z,8.5
2023-01-05T08:42:16.225Z,8.5
2023-01-05T08:44:16.698Z,8.5
2023-01-05T08:46:17.144Z,8.5
2023-01-05T08:48:16.234Z,8.5
2023-01-05T08:50:16.585Z,8.5
2023-01-05T08:52:16.672Z,8.5
2023-01-05T08:54:16.240Z,8.5
2023-01-05T08:56:16.479Z,8.5
2023-01-05T08:58:17.025Z,8.5
2023-01-05T09:00:16.246Z,8.5
2023-01-05T09:02:21.747Z,8.5
2023-01-05T09:04:16.666Z,8.5
2023-01-05T09:06:16.659Z,8.6
2023-01-05T09:08:16.214Z,8.6
2023-01-05T09:10:17.124Z,8.6
2023-01-05T09:12:16.243Z,8.7
2023-01-05T09:16:21.382Z,8.7
2023-01-05T09:18:16.689Z,8.7
2023-01-05T09:20:16.274Z,8.7
2023-01-05T09:22:16.692Z,8.7
2023-01-05T09:24:16.235Z,8.7
2023-01-05T09:26:16.212Z,8.8
2023-01-05T09:28:16.693Z,8.9
2023-01-05T09:30:16.219Z,8.8
2023-01-05T09:32:16.226Z,8.8
2023-01-05T09:34:16.669Z,8.8
2023-01-05T09:36:16.225Z,8.9
2023-01-05T09:38:16.223Z,8.8
2023-01-05T09:40:16.696Z,8.9
2023-01-05T09:42:16.210Z,8.8
2023-01-05T09:44:16.553Z,8.9
2023-01-05T09:48:17.283Z,8.9
2023-01-05T09:50:16.218Z,8.9
2023-01-05T09:52:16.643Z,9
2023-01-05T09:54:16.936Z,8.9
2023-01-05T09:56:34.504Z,8.9
2023-01-05T09:58:16.715Z,9
2023-01-05T10:00:16.254Z,8.9
2023-01-05T10:02:16.265Z,8.9
2023-01-05T10:04:16.807Z,8.9
2023-01-05T10:06:16.223Z,8.9
2023-01-05T10:08:16.213Z,8.8
2023-01-05T10:10:16.667Z,8.8
2023-01-05T10:12:16.217Z,8.8
2023-01-05T10:14:16.232Z,8.8
2023-01-05T10:16:16.760Z,9
2023-01-05T10:18:16.218Z,9
2023-01-05T10:20:16.231Z,9
2023-01-05T10:22:16.693Z,9.1
2023-01-05T10:24:16.229Z,9.2
2023-01-05T10:26:16.227Z,9.2
2023-01-05T10:28:17.130Z,9.2
2023-01-05T10:30:16.937Z,9.3
2023-01-05T10:32:16.245Z,9.3
2023-01-05T10:34:16.701Z,9.3
2023-01-05T10:36:19.312Z,9.3
2023-01-05T10:38:16.208Z,9.3
2023-01-05T10:40:16.693Z,9.2
2023-01-05T10:42:16.220Z,9.2
2023-01-05T10:44:16.211Z,9.2
2023-01-05T10:46:32.400Z,9.2
2023-01-05T10:48:16.207Z,9.3
2023-01-05T10:50:16.236Z,9.3
2023-01-05T10:52:16.675Z,9.4
2023-01-05T10:54:16.222Z,10
2023-01-05T10:56:16.682Z,9.8
2023-01-05T10:58:16.728Z,9.7
2023-01-05T11:00:16.293Z,9.7
2023-01-05T11:02:16.360Z,9.8
2023-01-05T11:08:16.245Z,9.8
2023-01-05T11:10:17.080Z,9.8
2023-01-05T11:12:16.964Z,10
2023-01-05T11:16:16.718Z,9.8
2023-01-05T11:20:16.257Z,9.9
2023-01-05T11:22:16.781Z,9.9
2023-01-05T11:24:16.223Z,10
2023-01-05T11:26:16.912Z,9.9
2023-01-05T11:30:16.708Z,9.9
2023-01-05T11:32:16.247Z,9.9
2023-01-05T11:36:17.294Z,9.8
2023-01-05T11:38:16.227Z,9.7
2023-01-05T11:42:21.693Z,9.6
2023-01-05T11:44:16.256Z,9.6
2023-01-05T11:46:16.768Z,9.6
2023-01-05T11:48:16.217Z,9.7
2023-01-05T11:50:16.673Z,9.7
2023-01-05T11:52:16.717Z,9.8
2023-01-05T11:54:16.214Z,9.9
2023-01-05T11:56:16.675Z,9.9
2023-01-05T11:58:16.712Z,9.9
2023-01-05T12:00:16.320Z,9.8
2023-01-05T12:02:16.215Z,9.8
2023-01-05T12:04:17.124Z,9.8
2023-01-05T12:06:16.254Z,9.8
2023-01-05T12:08:16.990Z,9.7
2023-01-05T12:10:16.726Z,9.7
2023-01-05T12:12:16.244Z,9.6
2023-01-05T12:14:16.704Z,9.7
2023-01-05T12:18:16.256Z,9.8
2023-01-05T12:20:16.712Z,9.8
2023-01-05T12:22:16.705Z,9.9
2023-01-05T12:26:16.267Z,10
2023-01-05T12:28:29.535Z,9.9
2023-01-05T12:34:16.697Z,9.6
2023-01-05T12:36:16.670Z,9.5
2023-01-05T12:38:16.226Z,9.4
2023-01-05T12:40:17.427Z,9.4
2023-01-05T12:42:16.267Z,9.3
2023-01-05T12:44:16.224Z,9.3
2023-01-05T12:46:16.741Z,9.4
2023-01-05T12:50:16.679Z,9.5
2023-01-05T12:54:16.255Z,9.5
2023-01-05T12:58:16.818Z,9.5
2023-01-05T13:00:16.253Z,9.5
2023-01-05T13:02:16.384Z,9.5
2023-01-05T13:04:16.714Z,9.5
2023-01-05T13:06:16.623Z,9.4
2023-01-05T13:08:16.458Z,9.4
2023-01-05T13:12:16.229Z,9.5
2023-01-05T13:14:16.257Z,9.5
2023-01-05T13:16:17.120Z,9.5
2023-01-05T13:18:16.268Z,9.4
2023-01-05T13:20:16.702Z,9.4
2023-01-05T13:22:16.723Z,9.4
2023-01-05T13:24:16.258Z,9.3
2023-01-05T13:26:16.272Z,9.3
2023-01-05T13:28:17.461Z,9.3
2023-01-05T13:30:16.399Z,9.3
2023-01-05T13:32:16.287Z,9.3
2023-01-05T13:36:16.238Z,9.3
2023-01-05T13:40:16.697Z,9.4
2023-01-05T13:42:16.699Z,9.3
2023-01-05T13:46:16.775Z,9.3
2023-01-05T13:50:16.254Z,9.3
2023-01-05T13:52:16.697Z,9.3
2023-01-05T13:54:16.249Z,9.3
2023-01-05T13:56:16.234Z,9.3
2023-01-05T13:58:16.719Z,9.2
2023-01-05T14:02:16.291Z,9.2
2023-01-05T14:04:17.156Z,9.2
2023-01-05T14:06:16.702Z,9.3
2023-01-05T14:08:16.276Z,9.2
2023-01-05T14:10:16.725Z,9.2
2023-01-05T14:12:16.331Z,9.2
2023-01-05T14:14:18.782Z,9.2
2023-01-05T14:16:16.761Z,9.1
2023-01-05T14:18:16.256Z,9.1
2023-01-05T14:20:16.242Z,9.1
2023-01-05T14:22:16.692Z,9.1
2023-01-05T14:24:16.235Z,9.1
2023-01-05T14:26:16.716Z,9
2023-01-05T14:28:16.719Z,9
2023-01-05T14:34:17.242Z,9
2023-01-05T14:36:16.268Z,9
2023-01-05T14:38:16.267Z,9
2023-01-05T14:40:16.708Z,9
2023-01-05T14:42:16.267Z,9
2023-01-05T14:44:16.236Z,9
2023-01-05T14:46:17.191Z,8.9
2023-01-05T14:50:16.698Z,9
2023-01-05T14:54:16.963Z,9
2023-01-05T14:56:16.315Z,8.9
2023-01-05T14:58:17.140Z,9
2023-01-05T15:00:16.626Z,8.9
2023-01-05T15:02:16.837Z,8.9
2023-01-05T15:04:16.714Z,8.9
2023-01-05T15:06:16.254Z,8.8
2023-01-05T15:08:16.244Z,8.9
2023-01-05T15:12:16.260Z,8.8
2023-01-05T15:14:16.280Z,8.8
2023-01-05T15:16:16.725Z,8.9
2023-01-05T15:18:16.242Z,8.8
2023-01-05T15:20:16.251Z,8.8
2023-01-05T15:22:30.605Z,8.8
2023-01-05T15:24:16.272Z,8.8
2023-01-05T15:26:16.278Z,8.7
2023-01-05T15:28:17.187Z,8.7
2023-01-05T15:30:16.235Z,8.8
2023-01-05T15:32:16.235Z,8.7
2023-01-05T15:34:16.694Z,8.7
2023-01-05T15:36:16.695Z,8.7
2023-01-05T15:38:18.347Z,8.6
2023-01-05T15:40:16.687Z,8.6
2023-01-05T15:42:16.275Z,8.6
2023-01-05T15:44:16.239Z,8.5
2023-01-05T15:46:16.724Z,8.5
2023-01-05T15:48:16.696Z,8.5
2023-01-05T15:50:16.277Z,8.4
2023-01-05T15:52:16.710Z,8.4
2023-01-05T15:54:16.275Z,8.4
2023-01-05T15:56:16.248Z,8.4
2023-01-05T15:58:16.740Z,8.4
2023-01-05T16:00:16.719Z,8.4
2023-01-05T16:02:16.296Z,8.4
2023-01-05T16:04:17.496Z,8.4
2023-01-05T16:06:16.272Z,8.4
2023-01-05T16:08:16.640Z,8.3
2023-01-05T16:10:16.737Z,8.4
2023-01-05T16:12:16.990Z,8.4
2023-01-05T16:14:16.692Z,8.2
2023-01-05T16:16:37.635Z,8.2
2023-01-05T16:18:16.706Z,8.3
2023-01-05T16:22:16.729Z,8.4
2023-01-05T16:24:16.672Z,8.4
2023-01-05T16:34:17.084Z,8.3
2023-01-05T16:36:16.252Z,8.3
2023-01-05T16:38:16.980Z,8.3
2023-01-05T16:40:16.754Z,8.3
2023-01-05T16:44:16.711Z,8.3
2023-01-05T16:46:18.864Z,8.3
2023-01-05T16:48:16.284Z,8.4
2023-01-05T16:50:16.299Z,8.3
2023-01-05T16:52:19.808Z,8.4
2023-01-05T16:54:16.897Z,8.4
2023-01-05T16:56:16.253Z,8.4
2023-01-05T17:00:16.280Z,8.3
2023-01-05T17:02:16.255Z,8.3
2023-01-05T17:04:16.722Z,8.3
2023-01-05T17:06:16.255Z,8.3
2023-01-05T17:08:16.268Z,8.2
2023-01-05T17:10:16.710Z,8.2
2023-01-05T17:12:17.011Z,8.2
2023-01-05T17:14:16.294Z,8.2
2023-01-05T17:20:16.736Z,8.3
2023-01-05T17:22:16.755Z,8.2
2023-01-05T17:24:16.293Z,8.2
2023-01-05T17:26:16.289Z,8.2
2023-01-05T17:28:16.748Z,8.3
2023-01-05T17:30:16.265Z,8.2
2023-01-05T17:32:16.259Z,8.3
2023-01-05T17:34:16.711Z,8.3
2023-01-05T17:36:16.643Z,8.2
2023-01-05T17:38:16.349Z,8.2
2023-01-05T17:40:16.727Z,8.3
2023-01-05T17:42:17.166Z,8.3
2023-01-05T17:44:16.772Z,8.3
2023-01-05T17:46:16.787Z,8.2
2023-01-05T17:48:16.895Z,8.2
2023-01-05T17:50:16.285Z,8.2
2023-01-05T17:54:17.041Z,8.2
2023-01-05T17:56:17.450Z,8.3
2023-01-05T18:00:16.893Z,8.2
2023-01-05T18:02:16.322Z,8.2
2023-01-05T18:04:16.744Z,8.2
2023-01-05T18:06:16.667Z,8.2
2023-01-05T18:08:16.286Z,8.2
2023-01-05T18:10:16.747Z,8.2
2023-01-05T18:14:16.291Z,8.2
2023-01-05T18:16:16.750Z,8.1
2023-01-05T18:18:17.047Z,8.2
2023-01-05T18:20:16.952Z,8.1
2023-01-05T18:24:16.747Z,8
2023-01-05T18:26:16.757Z,7.9
2023-01-05T18:28:17.004Z,7.8
2023-01-05T18:30:16.288Z,7.8
2023-01-05T18:36:00.377Z,7.7
2023-01-05T18:37:58.413Z,7.6
2023-01-05T18:40:05.380Z,7.6
2023-01-05T18:42:05.094Z,7.6
2023-01-05T18:44:01.925Z,7.6
2023-01-05T18:46:05.317Z,7.6
2023-01-05T18:47:58.349Z,7.7
2023-01-05T18:50:01.016Z,7.9
2023-01-05T18:54:01.183Z,7.9
2023-01-05T18:56:04.496Z,7.9
2023-01-05T18:58:05.512Z,7.9
2023-01-05T19:00:00.085Z,7.8
2023-01-05T19:02:00.217Z,7.8
2023-01-05T19:04:04.246Z,7.7
2023-01-05T19:06:04.032Z,7.8
2023-01-05T19:08:03.744Z,7.8
2023-01-05T19:10:05.682Z,7.7
2023-01-05T19:12:00.259Z,7.7
2023-01-05T19:14:02.776Z,7.7
2023-01-05T19:18:00.713Z,7.9
2023-01-05T19:19:59.422Z,7.9
2023-01-05T19:24:03.224Z,7.8
2023-01-05T19:26:04.285Z,7.7
2023-01-05T19:29:58.379Z,7.7
2023-01-05T19:32:00.451Z,7.8
2023-01-05T19:35:58.321Z,7.8
2023-01-05T19:37:59.857Z,7.8
2023-01-05T19:42:00.087Z,8
2023-01-05T19:44:00.564Z,8
2023-01-05T19:46:06.944Z,8
2023-01-05T19:48:02.841Z,8
2023-01-05T19:49:59.389Z,8
2023-01-05T19:52:03.482Z,8
2023-01-05T19:54:00.136Z,8
2023-01-05T19:56:03.750Z,7.9
2023-01-05T19:59:59.878Z,7.9
2023-01-05T20:02:02.125Z,7.8
2023-01-05T20:06:02.330Z,7.8
2023-01-05T20:08:02.851Z,7.8
2023-01-05T20:12:14.207Z,7.8
2023-01-05T20:14:00.556Z,7.8
2023-01-05T20:16:05.486Z,7.9
2023-01-05T20:18:00.126Z,7.9
2023-01-05T20:20:00.164Z,7.9
2023-01-05T20:26:01.566Z,7.8
2023-01-05T20:30:00.672Z,7.8
2023-01-05T20:32:13.303Z,7.8
2023-01-05T20:34:03.053Z,7.8
2023-01-05T20:35:59.821Z,7.8
2023-01-05T20:38:02.864Z,7.9
2023-01-05T20:43:58.383Z,7.7
2023-01-05T20:46:05.557Z,7.8
2023-01-05T20:50:02.160Z,7.8
2023-01-05T20:54:00.208Z,7.8
2023-01-05T20:56:00.499Z,7.8
2023-01-05T20:58:03.123Z,7.8
2023-01-05T21:00:02.999Z,7.7
2023-01-05T21:02:01.462Z,7.7
2023-01-05T21:04:05.156Z,7.7
2023-01-05T21:06:02.944Z,7.7
2023-01-05T21:08:00.408Z,7.6
2023-01-05T21:11:59.913Z,7.6
2023-01-05T21:14:00.134Z,7.5
2023-01-05T21:18:08.130Z,7.4
2023-01-05T21:20:05.518Z,7.3
2023-01-05T21:24:04.672Z,7.2
2023-01-05T21:26:05.173Z,7.2
2023-01-05T21:28:05.309Z,7.3
2023-01-05T21:30:01.542Z,7.3
2023-01-05T21:32:04.910Z,7.3
2023-01-05T21:36:03.818Z,7.5
2023-01-05T21:38:02.596Z,7.5
2023-01-05T21:40:05.449Z,7.7
2023-01-05T21:42:00.941Z,7.7
2023-01-05T21:44:03.605Z,7.7
2023-01-05T21:48:01.584Z,7.7
2023-01-05T21:50:03.308Z,7.7
2023-01-05T21:54:00.368Z,7.8
2023-01-05T21:55:58.752Z,7.9
2023-01-05T21:59:58.290Z,7.9
2023-01-05T22:02:03.099Z,7.9
2023-01-05T22:06:03.948Z,8.1
2023-01-05T22:07:58.752Z,8
2023-01-05T22:12:02.515Z,8.1
2023-01-05T22:14:03.669Z,8
2023-01-05T22:18:02.119Z,8.1
2023-01-05T22:20:00.631Z,8.1
2023-01-05T22:22:04.374Z,8.1
2023-01-05T22:24:02.084Z,8
2023-01-05T22:26:01.547Z,8.1
2023-01-05T22:29:58.400Z,8.1
2023-01-05T22:31:59.997Z,8
2023-01-05T22:36:01.387Z,8
2023-01-05T22:38:01.565Z,7.9
2023-01-05T22:42:02.524Z,7.9
2023-01-05T22:44:01.623Z,7.9
2023-01-05T22:46:05.390Z,7.8
2023-01-05T22:48:03.263Z,7.8
2023-01-05T22:50:02.700Z,7.8
2023-01-05T22:54:01.959Z,7.7
2023-01-05T22:56:02.067Z,7.6
2023-01-05T22:59:59.414Z,7.5
2023-01-05T23:02:02.522Z,7.5
2023-01-05T23:06:01.240Z,7.6
2023-01-05T23:08:04.272Z,7.6
2023-01-05T23:12:00.443Z,7.7
2023-01-05T23:14:02.653Z,7.7
2023-01-05T23:18:02.097Z,7.6
2023-01-05T23:19:58.073Z,7.6
2023-01-05T23:24:02.780Z,7.4
2023-01-05T23:26:03.013Z,7.5
2023-01-05T23:30:01.532Z,7.6
2023-01-05T23:31:58.791Z,7.5
2023-01-05T23:35:59.865Z,7.5
2023-01-05T23:37:59.343Z,7.6
2023-01-05T23:42:02.809Z,7.6
2023-01-05T23:44:00.335Z,7.6
2023-01-05T23:46:04.790Z,7.6
2023-01-05T23:48:02.041Z,7.6
2023-01-05T23:49:59.769Z,7.6
2023-01-05T23:54:02.476Z,7.6
2023-01-05T23:56:03.098Z,7.5
